Time;durP1;ratioP1;P1;durP2;ratioP2;P2;SDS_P1;SDS_P2;PMS_P1;PMS_P2;Temp;Humidity;BMP_temperature;BMP_pressure;BME280_temperature;BME280_humidity;BME280_pressure;Samples;Min_cycle;Max_cycle;Signal;HPM_P1;HPM_P2
2021/10/04 00:01:02;;;;;;;0.50;0.50;;;12.60;99.90;;;;;;4963753;28;20213;-89
2021/10/04 00:03:28;;;;;;;0.83;0.83;;;12.60;99.90;;;;;;4974256;28;20229;-91
2021/10/04 00:05:54;;;;;;;3.03;0.83;;;12.60;99.90;;;;;;4977747;28;20217;-90
2021/10/04 00:08:20;;;;;;;1.03;0.60;;;12.50;99.90;;;;;;4959523;28;20217;-90
2021/10/04 00:10:45;;;;;;;0.90;0.70;;;12.50;99.90;;;;;;4934640;28;20213;-89
2021/10/04 00:13:11;;;;;;;1.50;1.10;;;12.50;99.90;;;;;;4951564;28;20557;-90
2021/10/04 00:15:37;;;;;;;3.10;0.90;;;12.40;99.90;;;;;;4987148;28;20246;-89
2021/10/04 00:18:04;;;;;;;1.97;0.70;;;12.50;99.90;;;;;;4954587;28;20213;-90
2021/10/04 00:20:29;;;;;;;2.73;0.57;;;12.50;99.90;;;;;;4970685;28;20213;-90
2021/10/04 00:22:57;;;;;;;0.80;0.40;;;12.40;99.90;;;;;;4954731;28;20346;-90
2021/10/04 00:25:23;;;;;;;4.33;1.17;;;12.40;99.90;;;;;;4986370;28;20239;-89
2021/10/04 00:27:49;;;;;;;1.17;1.07;;;12.40;99.90;;;;;;4938560;28;20251;-90
2021/10/04 00:30:16;;;;;;;4.57;1.30;;;12.40;99.90;;;;;;4986765;28;20771;-89
2021/10/04 00:32:44;;;;;;;2.00;0.80;;;12.40;99.90;;;;;;4976739;28;20212;-89
2021/10/04 00:35:12;;;;;;;1.90;1.03;;;12.40;99.90;;;;;;4970724;28;20221;-90
2021/10/04 00:37:38;;;;;;;0.97;0.53;;;12.40;99.90;;;;;;4960923;28;20213;-90
2021/10/04 00:40:08;;;;;;;1.23;1.13;;;12.40;99.90;;;;;;4968525;28;20196;-91
2021/10/04 00:42:34;;;;;;;5.47;1.13;;;12.40;99.90;;;;;;4958657;28;20225;-90
2021/10/04 00:45:00;;;;;;;0.67;0.40;;;12.40;99.90;;;;;;4943121;28;20209;-91
2021/10/04 00:47:26;;;;;;;0.70;0.70;;;12.40;99.90;;;;;;4952920;28;20208;-89
2021/10/04 00:49:52;;;;;;;0.97;0.80;;;12.40;99.90;;;;;;4973625;28;20304;-90
2021/10/04 00:52:17;;;;;;;0.53;0.53;;;12.30;99.90;;;;;;4945016;28;20676;-89
2021/10/04 00:54:43;;;;;;;1.30;0.67;;;12.30;99.90;;;;;;4942915;28;20570;-91
2021/10/04 00:57:09;;;;;;;5.07;0.97;;;12.30;99.90;;;;;;4960048;28;20217;-90
2021/10/04 00:59:35;;;;;;;13.23;0.80;;;12.30;99.90;;;;;;4944348;28;20255;-90
2021/10/04 01:02:01;;;;;;;0.93;0.77;;;12.30;99.90;;;;;;4942545;28;20232;-90
2021/10/04 01:04:27;;;;;;;2.23;0.33;;;12.30;99.90;;;;;;4974916;28;20197;-90
2021/10/04 01:06:58;;;;;;;2.07;0.80;;;12.30;99.90;;;;;;4971282;28;20208;-90
2021/10/04 01:09:25;;;;;;;0.50;0.50;;;12.30;99.90;;;;;;4969799;28;20217;-91
2021/10/04 01:11:52;;;;;;;1.60;0.67;;;12.30;99.90;;;;;;4969060;28;20228;-90
2021/10/04 01:14:18;;;;;;;1.40;0.83;;;12.30;99.90;;;;;;4972813;28;20569;-91
2021/10/04 01:16:44;;;;;;;3.13;0.27;;;12.30;99.90;;;;;;4992055;28;20220;-90
2021/10/04 01:19:11;;;;;;;0.50;0.50;;;12.30;99.90;;;;;;4958772;28;20192;-90
2021/10/04 01:21:37;;;;;;;2.83;0.60;;;12.30;99.90;;;;;;4985985;28;20278;-91
2021/10/04 01:24:04;;;;;;;1.30;0.50;;;12.30;99.90;;;;;;4961762;28;20219;-91
2021/10/04 01:26:29;;;;;;;0.43;0.43;;;12.30;99.90;;;;;;4984246;28;21149;-91
2021/10/04 01:28:55;;;;;;;1.07;0.80;;;12.30;99.90;;;;;;4992295;28;20227;-90
2021/10/04 01:31:22;;;;;;;1.23;1.10;;;12.30;99.90;;;;;;4959034;28;20197;-91
2021/10/04 01:33:53;;;;;;;6.50;1.27;;;12.30;99.90;;;;;;4942732;28;20318;-90
2021/10/04 01:36:24;;;;;;;6.70;0.77;;;12.30;99.90;;;;;;4967502;28;20299;-90
2021/10/04 01:38:51;;;;;;;1.10;0.60;;;12.30;99.90;;;;;;4984606;28;20231;-91
2021/10/04 01:41:17;;;;;;;1.10;1.00;;;12.30;99.90;;;;;;4968064;28;20303;-90
2021/10/04 01:43:43;;;;;;;2.23;0.70;;;12.30;99.90;;;;;;4968977;28;20239;-90
2021/10/04 01:46:09;;;;;;;1.50;1.00;;;12.20;99.90;;;;;;4969503;28;20208;-91
2021/10/04 01:48:34;;;;;;;1.20;1.10;;;12.30;99.90;;;;;;4968554;28;20220;-90
2021/10/04 01:51:00;;;;;;;0.73;0.50;;;12.20;99.90;;;;;;4985233;28;20686;-90
2021/10/04 01:53:26;;;;;;;0.70;0.70;;;12.20;99.90;;;;;;4968577;28;20251;-90
2021/10/04 01:55:52;;;;;;;1.43;0.90;;;12.20;99.90;;;;;;4968704;28;20216;-90
2021/10/04 01:58:18;;;;;;;0.70;0.60;;;12.20;99.90;;;;;;4968493;28;20225;-90
2021/10/04 02:00:44;;;;;;;1.27;0.90;;;12.20;99.90;;;;;;4969187;28;20276;-90
2021/10/04 02:03:10;;;;;;;1.10;0.80;;;12.30;99.90;;;;;;4936993;28;20229;-90
2021/10/04 02:05:36;;;;;;;6.13;0.97;;;12.20;99.90;;;;;;4984276;28;20678;-91
2021/10/04 02:08:02;;;;;;;1.47;0.83;;;12.20;99.90;;;;;;4984814;28;20271;-92
2021/10/04 02:10:36;;;;;;;1.50;0.73;;;12.30;99.90;;;;;;5000834;28;20235;-90
2021/10/04 02:13:03;;;;;;;1.20;0.60;;;12.30;99.90;;;;;;4969795;28;20192;-90
2021/10/04 02:15:29;;;;;;;0.43;0.40;;;12.30;99.90;;;;;;4984240;28;20223;-91
2021/10/04 02:17:56;;;;;;;1.33;0.70;;;12.30;99.90;;;;;;4983859;28;20216;-91
2021/10/04 02:20:25;;;;;;;0.40;0.40;;;12.30;99.90;;;;;;4967974;28;20684;-90
2021/10/04 02:22:51;;;;;;;0.83;0.83;;;12.30;99.90;;;;;;4967770;28;20255;-90
2021/10/04 02:25:18;;;;;;;0.63;0.57;;;12.30;99.90;;;;;;4968413;28;20220;-90
2021/10/04 02:27:44;;;;;;;0.30;0.30;;;12.30;99.90;;;;;;4984818;28;20595;-90
2021/10/04 02:30:24;;;;;;;1.20;1.03;;;12.30;99.90;;;;;;5000901;28;20225;-90
2021/10/04 02:32:51;;;;;;;0.87;0.87;;;12.20;99.90;;;;;;4984148;28;20218;-91
2021/10/04 02:35:17;;;;;;;0.60;0.60;;;12.20;99.90;;;;;;4984128;28;20205;-90
2021/10/04 02:37:44;;;;;;;0.70;0.60;;;12.20;99.90;;;;;;5000890;28;20761;-91
2021/10/04 02:40:11;;;;;;;0.50;0.50;;;12.20;99.90;;;;;;4969072;28;20177;-91
2021/10/04 02:42:39;;;;;;;3.37;1.20;;;12.20;99.90;;;;;;4967810;28;20592;-90
2021/10/04 02:45:06;;;;;;;2.67;1.23;;;12.30;99.90;;;;;;4983646;28;20213;-91
2021/10/04 02:47:32;;;;;;;0.60;0.60;;;12.30;99.90;;;;;;4999927;28;20224;-90
2021/10/04 02:49:58;;;;;;;2.03;1.23;;;12.20;99.90;;;;;;4967621;28;20242;-90
2021/10/04 02:52:24;;;;;;;3.97;1.10;;;12.30;99.90;;;;;;4984067;28;20240;-91
2021/10/04 02:54:50;;;;;;;1.27;0.67;;;12.30;99.90;;;;;;4967713;28;20197;-90
2021/10/04 02:57:16;;;;;;;2.27;1.20;;;12.20;99.90;;;;;;4983609;28;20225;-91
2021/10/04 02:59:41;;;;;;;3.47;1.57;;;12.30;99.90;;;;;;4983066;28;21226;-91
2021/10/04 03:02:07;;;;;;;4.07;1.83;;;12.30;99.90;;;;;;4967706;28;20224;-90
2021/10/04 03:04:33;;;;;;;6.30;0.80;;;12.30;99.90;;;;;;4967270;28;20312;-91
2021/10/04 03:06:59;;;;;;;4.53;0.90;;;12.30;99.90;;;;;;4968273;28;20284;-91
2021/10/04 03:09:25;;;;;;;1.07;0.73;;;12.30;99.90;;;;;;4967184;28;20417;-91
2021/10/04 03:11:51;;;;;;;5.90;1.70;;;12.40;99.90;;;;;;4982983;28;20307;-90
2021/10/04 03:14:17;;;;;;;1.07;0.80;;;12.40;99.90;;;;;;4983108;28;20320;-90
2021/10/04 03:16:42;;;;;;;1.37;1.27;;;12.40;99.90;;;;;;4983450;28;20314;-90
2021/10/04 03:19:08;;;;;;;1.00;1.00;;;12.40;99.90;;;;;;4968066;28;20196;-92
2021/10/04 03:21:34;;;;;;;0.50;0.50;;;12.40;99.90;;;;;;4982517;28;20224;-90
2021/10/04 03:24:00;;;;;;;0.90;0.90;;;12.40;99.90;;;;;;4982581;28;20479;-90
2021/10/04 03:26:26;;;;;;;2.30;2.03;;;12.40;99.90;;;;;;4999380;28;20232;-90
2021/10/04 03:28:51;;;;;;;3.87;1.20;;;12.40;99.90;;;;;;4967544;28;20248;-91
2021/10/04 03:31:17;;;;;;;6.10;1.20;;;12.40;99.90;;;;;;4967432;28;20255;-90
2021/10/04 03:33:43;;;;;;;4.60;0.83;;;12.50;99.90;;;;;;4969524;28;20247;-91
2021/10/04 03:36:09;;;;;;;2.87;1.87;;;12.40;99.90;;;;;;4975147;28;20311;-91
2021/10/04 03:38:34;;;;;;;1.30;0.90;;;12.40;99.90;;;;;;4991154;28;20262;-90
2021/10/04 03:41:00;;;;;;;1.00;0.53;;;12.40;99.90;;;;;;4969278;28;20228;-90
2021/10/04 03:43:26;;;;;;;1.90;0.77;;;12.40;99.90;;;;;;4941783;28;20212;-90
2021/10/04 03:45:52;;;;;;;3.60;1.00;;;12.40;99.90;;;;;;4960269;28;20644;-91
2021/10/04 03:48:18;;;;;;;1.33;0.63;;;12.40;99.90;;;;;;4994962;28;20223;-90
2021/10/04 03:50:44;;;;;;;1.83;0.90;;;12.30;99.90;;;;;;4971497;28;20213;-90
2021/10/04 03:53:10;;;;;;;0.47;0.47;;;12.30;99.90;;;;;;4983825;28;20612;-91
2021/10/04 03:55:36;;;;;;;2.03;1.00;;;12.30;99.90;;;;;;4957123;28;20210;-90
2021/10/04 03:58:02;;;;;;;0.57;0.50;;;12.30;99.90;;;;;;5013756;28;20220;-91
2021/10/04 04:00:28;;;;;;;7.80;1.40;;;12.30;99.90;;;;;;4996383;28;20567;-90
2021/10/04 04:02:54;;;;;;;0.93;0.70;;;12.30;99.90;;;;;;5012790;28;20870;-90
2021/10/04 04:05:21;;;;;;;4.60;0.70;;;12.40;99.90;;;;;;5012831;28;20228;-91
2021/10/04 04:07:47;;;;;;;0.97;0.43;;;12.40;99.90;;;;;;4995971;28;20216;-90
2021/10/04 04:10:16;;;;;;;1.17;0.77;;;12.40;99.90;;;;;;4995607;28;20476;-90
2021/10/04 04:12:42;;;;;;;3.80;0.73;;;12.40;99.90;;;;;;4996794;28;20287;-91
2021/10/04 04:15:09;;;;;;;0.67;0.53;;;12.40;99.90;;;;;;4979384;28;20208;-90
2021/10/04 04:17:36;;;;;;;2.80;0.97;;;12.40;99.90;;;;;;4991316;28;20259;-90
2021/10/04 04:20:06;;;;;;;4.60;0.87;;;12.40;99.90;;;;;;4957961;28;20315;-90
2021/10/04 04:22:32;;;;;;;3.87;0.97;;;12.40;99.90;;;;;;4938785;28;20232;-90
2021/10/04 04:24:58;;;;;;;1.27;1.10;;;12.30;99.90;;;;;;4955408;28;20192;-91
2021/10/04 04:27:24;;;;;;;0.53;0.53;;;12.20;99.90;;;;;;4979381;28;20250;-89
2021/10/04 04:29:51;;;;;;;2.53;1.13;;;12.10;99.90;;;;;;5004972;28;20378;-90
2021/10/04 04:32:17;;;;;;;3.23;0.80;;;12.00;99.90;;;;;;4954456;28;20263;-90
2021/10/04 04:34:43;;;;;;;5.67;0.80;;;11.90;99.90;;;;;;4986008;28;20291;-90
2021/10/04 04:37:09;;;;;;;1.37;0.73;;;11.80;99.90;;;;;;4970158;28;20193;-90
2021/10/04 04:39:36;;;;;;;2.13;1.70;;;11.80;99.90;;;;;;5002230;28;20236;-90
2021/10/04 04:42:03;;;;;;;0.63;0.63;;;11.70;99.90;;;;;;4969875;28;20224;-89
2021/10/04 04:44:30;;;;;;;2.97;0.83;;;11.70;99.90;;;;;;4986780;28;20602;-90
2021/10/04 04:46:56;;;;;;;1.17;1.07;;;11.70;99.90;;;;;;4969442;28;20213;-91
2021/10/04 04:49:26;;;;;;;0.97;0.90;;;11.70;99.90;;;;;;4985727;28;20188;-90
2021/10/04 04:51:55;;;;;;;0.73;0.73;;;11.60;99.90;;;;;;4985999;28;21052;-91
2021/10/04 04:54:21;;;;;;;1.23;1.13;;;11.70;99.90;;;;;;4985782;28;20231;-92
2021/10/04 04:56:48;;;;;;;0.67;0.67;;;11.60;99.90;;;;;;5001669;28;20216;-90
2021/10/04 04:59:15;;;;;;;1.50;1.37;;;11.60;99.90;;;;;;4966979;28;20227;-90
2021/10/04 05:01:42;;;;;;;1.30;1.03;;;11.60;99.90;;;;;;4978337;28;20220;-90
2021/10/04 05:04:09;;;;;;;0.80;0.80;;;11.60;99.90;;;;;;4986858;28;20192;-89
2021/10/04 05:06:35;;;;;;;1.47;1.37;;;11.70;99.90;;;;;;4985492;28;20208;-90
2021/10/04 05:09:01;;;;;;;5.23;1.60;;;11.70;99.90;;;;;;4969137;28;20288;-90
2021/10/04 05:11:27;;;;;;;1.10;0.90;;;11.70;99.90;;;;;;4985260;28;20209;-91
2021/10/04 05:13:53;;;;;;;1.40;1.10;;;11.70;99.90;;;;;;4969544;28;20303;-91
2021/10/04 05:16:18;;;;;;;1.23;1.20;;;11.70;99.90;;;;;;4969899;28;20193;-90
2021/10/04 05:18:44;;;;;;;2.83;0.97;;;11.70;99.90;;;;;;4969614;28;20188;-91
2021/10/04 05:21:10;;;;;;;0.80;0.80;;;11.70;99.90;;;;;;4969494;28;20209;-92
2021/10/04 05:23:39;;;;;;;8.77;1.00;;;11.70;99.90;;;;;;4985116;28;20811;-91
2021/10/04 05:26:05;;;;;;;1.77;1.23;;;11.70;99.90;;;;;;4952640;28;20209;-91
2021/10/04 05:28:31;;;;;;;0.97;0.87;;;11.70;99.90;;;;;;5002048;28;20919;-90
2021/10/04 05:30:57;;;;;;;2.97;0.97;;;11.60;99.90;;;;;;4986440;28;20713;-92
2021/10/04 05:33:23;;;;;;;0.87;0.87;;;11.60;99.90;;;;;;4985264;28;20601;-90
2021/10/04 05:35:49;;;;;;;2.33;0.93;;;11.60;99.90;;;;;;4985398;28;20220;-90
2021/10/04 05:38:15;;;;;;;2.27;1.13;;;11.60;99.90;;;;;;4967870;28;20213;-90
2021/10/04 05:40:41;;;;;;;2.67;1.13;;;11.60;99.90;;;;;;5001324;28;20348;-90
2021/10/04 05:43:07;;;;;;;1.20;1.10;;;11.60;99.90;;;;;;4968560;28;20200;-92
2021/10/04 05:45:33;;;;;;;1.30;1.20;;;11.60;99.90;;;;;;4985063;28;20665;-91
2021/10/04 05:47:59;;;;;;;1.00;0.80;;;11.60;99.90;;;;;;4952462;28;20219;-90
2021/10/04 05:50:25;;;;;;;1.03;0.87;;;11.60;99.90;;;;;;4969288;28;20216;-90
2021/10/04 05:52:52;;;;;;;0.80;0.70;;;11.60;99.90;;;;;;4967826;28;20239;-90
2021/10/04 05:55:18;;;;;;;0.80;0.80;;;11.60;99.90;;;;;;4969165;28;20185;-89
2021/10/04 05:57:44;;;;;;;2.03;1.17;;;11.60;99.90;;;;;;4986108;28;20646;-91
2021/10/04 06:00:13;;;;;;;1.10;1.00;;;11.60;99.90;;;;;;4984920;28;20211;-90
2021/10/04 06:02:40;;;;;;;1.07;0.73;;;11.60;99.90;;;;;;5001552;28;20710;-90
2021/10/04 06:05:08;;;;;;;1.87;1.67;;;11.60;99.90;;;;;;4969850;28;20696;-90
2021/10/04 06:07:34;;;;;;;2.07;1.30;;;11.70;99.90;;;;;;4984999;28;20669;-92
2021/10/04 06:10:00;;;;;;;4.70;1.43;;;11.70;99.90;;;;;;4969679;28;20181;-89
2021/10/04 06:12:29;;;;;;;2.13;1.50;;;11.80;99.90;;;;;;4969700;28;20240;-91
2021/10/04 06:15:00;;;;;;;2.73;1.80;;;11.80;99.90;;;;;;4976316;28;20216;-90
2021/10/04 06:17:27;;;;;;;1.00;0.97;;;11.90;99.90;;;;;;4984040;28;20278;-90
2021/10/04 06:19:53;;;;;;;1.00;0.90;;;11.90;99.90;;;;;;4942518;28;20221;-90
2021/10/04 06:22:21;;;;;;;1.60;0.93;;;11.90;99.90;;;;;;4941779;28;20272;-91
2021/10/04 06:24:47;;;;;;;3.63;1.57;;;11.90;99.90;;;;;;4959244;28;20316;-90
2021/10/04 06:27:13;;;;;;;2.67;1.33;;;11.80;99.90;;;;;;4973669;28;20332;-92
2021/10/04 06:29:38;;;;;;;3.67;1.80;;;11.80;99.90;;;;;;4945250;28;20663;-90
2021/10/04 06:32:05;;;;;;;3.70;1.50;;;11.80;99.90;;;;;;4985197;28;20228;-90
2021/10/04 06:34:32;;;;;;;1.50;1.30;;;11.80;99.90;;;;;;4979099;28;20244;-90
2021/10/04 06:36:57;;;;;;;2.37;1.40;;;11.80;99.90;;;;;;4994083;28;20193;-90
2021/10/04 06:39:23;;;;;;;2.83;1.57;;;11.80;99.90;;;;;;4994920;28;20219;-90
2021/10/04 06:41:49;;;;;;;2.63;1.37;;;11.90;99.90;;;;;;4962791;28;20221;-90
2021/10/04 06:44:15;;;;;;;2.00;1.20;;;11.90;99.90;;;;;;4973256;28;20981;-90
2021/10/04 06:46:41;;;;;;;3.83;1.37;;;11.90;99.90;;;;;;4971797;28;20300;-90
2021/10/04 06:49:07;;;;;;;8.67;1.63;;;12.00;99.90;;;;;;4982446;28;20681;-91
2021/10/04 06:51:33;;;;;;;2.00;0.90;;;12.00;99.90;;;;;;4964893;28;20213;-91
2021/10/04 06:53:58;;;;;;;1.60;1.23;;;12.00;99.90;;;;;;4981083;28;20244;-90
2021/10/04 06:56:24;;;;;;;5.87;1.27;;;12.10;99.90;;;;;;4962314;28;20583;-91
2021/10/04 06:58:51;;;;;;;3.17;1.40;;;12.10;99.90;;;;;;4974066;28;20271;-92
2021/10/04 07:01:17;;;;;;;1.10;1.00;;;12.10;99.90;;;;;;4974440;28;20193;-92
2021/10/04 07:03:43;;;;;;;2.43;1.00;;;12.10;99.90;;;;;;4928585;28;20280;-92
2021/10/04 07:06:09;;;;;;;1.80;1.23;;;12.10;99.90;;;;;;4925872;28;20299;-92
2021/10/04 07:08:35;;;;;;;2.60;1.87;;;12.10;99.90;;;;;;4969858;28;20216;-91
2021/10/04 07:11:01;;;;;;;1.43;1.33;;;12.10;99.90;;;;;;4995125;28;20227;-91
2021/10/04 07:13:27;;;;;;;2.67;1.37;;;12.10;99.90;;;;;;4978177;28;20196;-91
2021/10/04 07:15:53;;;;;;;2.60;1.37;;;12.10;99.90;;;;;;4977341;28;20204;-91
2021/10/04 07:18:19;;;;;;;10.00;1.27;;;12.00;99.90;;;;;;4995817;28;20215;-92
2021/10/04 07:20:45;;;;;;;1.57;1.10;;;12.00;99.90;;;;;;4992683;28;20215;-91
2021/10/04 07:23:11;;;;;;;3.30;3.00;;;12.00;99.90;;;;;;4969666;28;21395;-90
2021/10/04 07:25:37;;;;;;;1.77;1.03;;;12.00;99.90;;;;;;4958656;28;20232;-90
2021/10/04 07:28:04;;;;;;;1.47;1.00;;;12.00;99.90;;;;;;4958602;28;20229;-91
2021/10/04 07:30:30;;;;;;;1.90;1.80;;;12.00;99.90;;;;;;4984248;28;20637;-91
2021/10/04 07:32:57;;;;;;;1.87;0.90;;;12.00;99.90;;;;;;4967579;28;20224;-90
2021/10/04 07:35:24;;;;;;;3.33;1.70;;;12.00;99.90;;;;;;4974376;28;20270;-90
2021/10/04 07:37:49;;;;;;;3.33;1.90;;;12.80;99.90;;;;;;4977443;28;20228;-90
2021/10/04 07:40:16;;;;;;;2.07;1.77;;;13.80;99.90;;;;;;5007169;28;20188;-90
2021/10/04 07:42:42;;;;;;;1.40;1.30;;;15.00;99.90;;;;;;4941448;28;20209;-90
2021/10/04 07:45:09;;;;;;;2.17;1.77;;;15.90;99.90;;;;;;4988814;28;20224;-91
2021/10/04 07:47:36;;;;;;;2.00;0.97;;;16.40;99.90;;;;;;4977723;28;20247;-91
2021/10/04 07:50:03;;;;;;;2.50;1.10;;;16.50;99.90;;;;;;5009987;28;20212;-91
2021/10/04 07:52:29;;;;;;;2.93;1.70;;;16.80;99.90;;;;;;4975093;28;20195;-90
2021/10/04 07:54:55;;;;;;;3.47;1.23;;;17.30;99.90;;;;;;4925998;28;20190;-91
2021/10/04 07:57:21;;;;;;;3.17;1.13;;;18.00;99.90;;;;;;4957561;28;20225;-90
2021/10/04 07:59:46;;;;;;;1.27;1.00;;;18.00;99.90;;;;;;4942260;28;20260;-90
2021/10/04 08:02:12;;;;;;;3.03;1.13;;;18.20;99.90;;;;;;4965971;28;20303;-90
2021/10/04 08:04:38;;;;;;;2.20;1.00;;;18.30;99.90;;;;;;4988431;28;20220;-90
2021/10/04 08:07:04;;;;;;;4.03;1.43;;;18.30;99.90;;;;;;4957262;28;20698;-90
2021/10/04 08:09:30;;;;;;;1.60;0.97;;;18.30;99.90;;;;;;4956936;28;21235;-90
2021/10/04 08:11:56;;;;;;;8.63;1.63;;;18.50;99.90;;;;;;4980151;28;20228;-90
2021/10/04 08:14:23;;;;;;;0.90;0.77;;;18.20;99.90;;;;;;4971710;28;21086;-90
2021/10/04 08:16:49;;;;;;;1.27;1.00;;;18.50;99.90;;;;;;4976851;28;20229;-90
2021/10/04 08:19:14;;;;;;;5.53;1.63;;;18.90;99.90;;;;;;4975447;28;20332;-90
2021/10/04 08:21:40;;;;;;;2.70;1.30;;;18.90;99.90;;;;;;4984544;28;20223;-91
2021/10/04 08:24:06;;;;;;;3.40;1.43;;;18.90;99.90;;;;;;4993867;28;20371;-88
2021/10/04 08:26:32;;;;;;;3.83;1.03;;;18.50;99.90;;;;;;4957051;28;20276;-91
2021/10/04 08:28:58;;;;;;;1.17;0.90;;;18.80;99.90;;;;;;4991649;28;20316;-90
2021/10/04 08:31:29;;;;;;;1.07;0.80;;;19.10;99.90;;;;;;4964049;28;20232;-90
2021/10/04 08:33:59;;;;;;;2.13;1.00;;;19.00;99.90;;;;;;5010117;28;20195;-90
2021/10/04 08:36:25;;;;;;;3.77;1.37;;;19.00;99.90;;;;;;4953171;28;20221;-89
2021/10/04 08:38:51;;;;;;;1.83;1.10;;;18.60;99.90;;;;;;4961508;28;20217;-88
2021/10/04 08:41:18;;;;;;;2.23;1.30;;;18.70;99.90;;;;;;4950015;28;20223;-89
2021/10/04 08:43:48;;;;;;;0.73;0.73;;;18.30;99.90;;;;;;4933696;28;20315;-90
2021/10/04 08:46:14;;;;;;;1.57;1.07;;;17.50;99.90;;;;;;4967310;28;20685;-90
2021/10/04 08:48:40;;;;;;;3.40;0.90;;;16.70;99.90;;;;;;4960888;28;20193;-89
2021/10/04 08:51:08;;;;;;;3.97;1.80;;;15.90;99.90;;;;;;4977094;28;20239;-89
2021/10/04 08:53:35;;;;;;;2.13;1.07;;;15.70;99.90;;;;;;4954814;28;20228;-88
2021/10/04 08:56:01;;;;;;;4.60;1.47;;;15.50;99.90;;;;;;4989181;28;20213;-89
2021/10/04 08:58:26;;;;;;;2.77;1.03;;;15.30;99.90;;;;;;4960852;28;20557;-89
2021/10/04 09:00:52;;;;;;;4.23;1.50;;;15.20;99.90;;;;;;4977237;28;20203;-89
2021/10/04 09:03:18;;;;;;;1.53;0.97;;;15.30;99.90;;;;;;4961380;28;20271;-89
2021/10/04 09:05:44;;;;;;;1.73;1.03;;;15.10;99.90;;;;;;4976772;28;20240;-89
2021/10/04 09:08:12;;;;;;;2.33;1.10;;;15.10;99.90;;;;;;4985446;28;20222;-90
2021/10/04 09:10:41;;;;;;;2.97;0.83;;;15.10;99.90;;;;;;4976051;28;20223;-89
2021/10/04 09:13:12;;;;;;;2.93;1.13;;;15.00;99.90;;;;;;4975885;28;20217;-90
2021/10/04 09:15:40;;;;;;;2.17;1.80;;;15.00;99.90;;;;;;4959531;28;20215;-90
2021/10/04 09:18:15;;;;;;;1.87;1.30;;;15.10;99.90;;;;;;4958656;28;20224;-91
2021/10/04 09:21:09;;;;;;;4.07;2.30;;;15.00;99.90;;;;;;4981608;28;20224;-91
2021/10/04 09:23:46;;;;;;;7.10;1.50;;;15.10;99.90;;;;;;4995388;28;20370;-91
2021/10/04 09:26:34;;;;;;;2.50;0.90;;;15.20;99.90;;;;;;4982808;28;20213;-90
2021/10/04 09:29:02;;;;;;;1.60;0.90;;;15.30;99.90;;;;;;4969143;28;20233;-90
2021/10/04 09:31:31;;;;;;;1.03;0.93;;;15.20;99.90;;;;;;4979336;28;20649;-90
2021/10/04 09:34:07;;;;;;;1.57;1.47;;;15.30;99.90;;;;;;4996712;28;20630;-90
2021/10/04 09:36:44;;;;;;;1.30;1.20;;;15.20;99.90;;;;;;4985462;28;20215;-90
2021/10/04 09:39:13;;;;;;;3.67;1.20;;;15.20;99.90;;;;;;4985261;28;20303;-90
2021/10/04 09:42:04;;;;;;;2.47;1.60;;;15.40;99.90;;;;;;4984949;28;20243;-90
2021/10/04 09:44:47;;;;;;;5.60;0.90;;;15.40;99.90;;;;;;4969241;28;20268;-90
2021/10/04 09:47:21;;;;;;;2.80;1.60;;;15.40;99.90;;;;;;4985373;28;20308;-89
2021/10/04 09:50:06;;;;;;;1.00;0.90;;;15.50;99.90;;;;;;5002410;28;20231;-90
2021/10/04 09:52:49;;;;;;;1.57;0.87;;;15.70;99.90;;;;;;5002277;28;20220;-90
2021/10/04 09:55:19;;;;;;;3.50;1.30;;;16.00;99.90;;;;;;4970214;28;20645;-90
2021/10/04 09:58:02;;;;;;;1.10;1.03;;;16.50;99.90;;;;;;5001990;28;20196;-90
2021/10/04 10:00:33;;;;;;;0.70;0.63;;;16.90;99.90;;;;;;4969614;28;20222;-91
2021/10/04 10:03:00;;;;;;;1.93;0.83;;;17.30;99.90;;;;;;4968505;28;20318;-91
2021/10/04 10:05:28;;;;;;;1.63;1.33;;;18.10;99.90;;;;;;5001311;28;20693;-91
2021/10/04 10:07:56;;;;;;;3.00;1.83;;;18.20;99.90;;;;;;4962703;28;20240;-91
2021/10/04 10:10:22;;;;;;;2.17;0.90;;;18.50;99.90;;;;;;4983228;28;20240;-90
2021/10/04 10:12:48;;;;;;;1.13;0.80;;;18.60;99.90;;;;;;5002118;28;20212;-90
2021/10/04 10:15:26;;;;;;;3.70;1.37;;;18.80;99.90;;;;;;4974897;28;20623;-90
2021/10/04 10:18:07;;;;;;;4.03;1.10;;;19.00;99.90;;;;;;4958529;28;20228;-90
2021/10/04 10:20:34;;;;;;;0.90;0.70;;;19.10;99.90;;;;;;4959235;28;20224;-90
2021/10/04 10:22:59;;;;;;;1.83;1.20;;;19.00;99.90;;;;;;4934999;28;20236;-89
2021/10/04 10:25:31;;;;;;;3.77;1.23;;;19.10;99.90;;;;;;4978382;28;20687;-91
2021/10/04 10:27:57;;;;;;;1.23;0.60;;;19.20;99.90;;;;;;4978701;28;20236;-88
2021/10/04 10:30:25;;;;;;;1.50;0.90;;;19.10;99.90;;;;;;4992310;28;20318;-89
2021/10/04 10:32:51;;;;;;;2.33;1.13;;;19.10;99.90;;;;;;4979712;28;20224;-90
2021/10/04 10:35:37;;;;;;;0.97;0.90;;;19.10;99.90;;;;;;4964479;28;21209;-89
2021/10/04 10:38:03;;;;;;;3.97;0.63;;;19.50;99.90;;;;;;4985141;28;20302;-88
2021/10/04 10:40:29;;;;;;;2.47;1.07;;;19.30;99.90;;;;;;4927034;28;20638;-88
2021/10/04 10:43:04;;;;;;;4.07;1.13;;;19.20;99.90;;;;;;4978324;28;20587;-89
2021/10/04 10:45:57;;;;;;;0.83;0.63;;;19.20;99.90;;;;;;4959141;28;20219;-88
2021/10/04 10:48:40;;;;;;;0.90;0.90;;;19.60;99.90;;;;;;4974540;28;20211;-89
2021/10/04 10:51:09;;;;;;;5.80;1.47;;;19.30;99.90;;;;;;4962888;28;20701;-89
2021/10/04 10:53:35;;;;;;;1.80;1.00;;;19.40;99.90;;;;;;4957415;28;20216;-89
2021/10/04 10:56:05;;;;;;;3.03;0.90;;;19.30;99.90;;;;;;4942916;28;20213;-89
2021/10/04 10:58:34;;;;;;;1.60;0.80;;;19.60;99.90;;;;;;4958076;28;20252;-89
2021/10/04 11:01:05;;;;;;;3.60;0.80;;;19.60;99.90;;;;;;4960120;28;20184;-88
2021/10/04 11:03:31;;;;;;;1.17;0.77;;;19.50;99.90;;;;;;4958891;28;20232;-88
2021/10/04 11:06:06;;;;;;;0.67;0.67;;;19.20;99.90;;;;;;4985567;28;20224;-89
2021/10/04 11:08:35;;;;;;;2.07;0.90;;;19.00;99.90;;;;;;4977369;28;20246;-89
2021/10/04 11:11:00;;;;;;;2.20;1.23;;;19.40;99.90;;;;;;4977446;28;20224;-89
2021/10/04 11:13:28;;;;;;;2.87;0.70;;;19.50;99.90;;;;;;4965997;28;20205;-88
2021/10/04 11:15:57;;;;;;;2.50;1.10;;;19.60;99.90;;;;;;4967325;28;20196;-89
2021/10/04 11:18:24;;;;;;;0.83;0.60;;;19.60;99.90;;;;;;4973715;28;20216;-90
2021/10/04 11:21:02;;;;;;;3.43;0.87;;;19.30;99.90;;;;;;4966735;28;20216;-89
2021/10/04 11:23:28;;;;;;;3.60;0.83;;;19.50;99.90;;;;;;4967945;28;20225;-89
2021/10/04 11:25:55;;;;;;;0.97;0.60;;;19.30;99.90;;;;;;4948806;28;20227;-88
2021/10/04 11:28:39;;;;;;;1.40;1.27;;;19.00;99.90;;;;;;4966752;28;20201;-89
2021/10/04 11:31:07;;;;;;;1.03;0.70;;;18.90;99.90;;;;;;4976467;28;20188;-89
2021/10/04 11:33:36;;;;;;;1.30;1.03;;;19.10;99.90;;;;;;4957100;28;20706;-89
2021/10/04 11:36:05;;;;;;;1.63;0.80;;;19.40;99.90;;;;;;4978644;28;20216;-89
2021/10/04 11:38:34;;;;;;;2.20;1.07;;;19.40;99.90;;;;;;4973205;28;20586;-89
2021/10/04 11:41:00;;;;;;;1.87;0.90;;;19.00;99.90;;;;;;4977188;28;20229;-90
2021/10/04 11:43:28;;;;;;;0.90;0.63;;;18.50;99.90;;;;;;4961780;28;20906;-90
2021/10/04 11:45:55;;;;;;;2.77;0.80;;;18.50;99.90;;;;;;4994129;28;20326;-89
2021/10/04 11:48:39;;;;;;;1.60;1.07;;;18.30;99.90;;;;;;5001620;28;20220;-89
2021/10/04 11:51:05;;;;;;;2.43;1.00;;;18.60;99.90;;;;;;4968632;28;20598;-89
2021/10/04 11:53:32;;;;;;;2.17;0.97;;;18.60;99.90;;;;;;4967779;28;20224;-90
2021/10/04 11:55:59;;;;;;;2.80;0.80;;;18.80;99.90;;;;;;4970856;28;20742;-89
2021/10/04 11:58:26;;;;;;;2.47;0.70;;;18.70;99.90;;;;;;4985681;28;20256;-89
2021/10/04 12:00:52;;;;;;;3.93;1.07;;;18.40;99.90;;;;;;5009687;28;20303;-89
2021/10/04 12:03:33;;;;;;;2.03;1.10;;;18.40;99.90;;;;;;4958924;28;20324;-89
2021/10/04 12:06:00;;;;;;;1.50;0.60;;;18.30;99.90;;;;;;4962476;28;20251;-89
2021/10/04 12:08:39;;;;;;;2.43;0.90;;;18.40;99.90;;;;;;4981186;28;20212;-89
2021/10/04 12:11:07;;;;;;;1.30;0.40;;;18.40;99.90;;;;;;4975742;28;20303;-90
2021/10/04 12:13:40;;;;;;;2.60;0.63;;;18.30;99.90;;;;;;4997689;28;20677;-88
2021/10/04 12:16:09;;;;;;;2.20;0.70;;;18.00;99.90;;;;;;4976862;28;20860;-90
2021/10/04 12:19:01;;;;;;;1.40;0.40;;;17.90;99.90;;;;;;4993340;28;20217;-89
2021/10/04 12:21:37;;;;;;;0.67;0.60;;;18.10;99.90;;;;;;4968863;28;20217;-89
2021/10/04 12:24:15;;;;;;;2.13;0.50;;;18.10;99.90;;;;;;4967922;28;20568;-89
2021/10/04 12:26:59;;;;;;;0.70;0.50;;;18.00;99.90;;;;;;4984412;28;20323;-89
2021/10/04 12:29:33;;;;;;;1.13;0.80;;;17.80;99.90;;;;;;4982274;28;20224;-90
2021/10/04 12:32:28;;;;;;;4.43;0.67;;;17.70;99.90;;;;;;4976879;28;20705;-89
2021/10/04 12:35:12;;;;;;;2.17;0.50;;;17.60;99.90;;;;;;4974379;28;20283;-89
2021/10/04 12:37:44;;;;;;;0.73;0.50;;;17.40;99.90;;;;;;4968334;28;20228;-89
2021/10/04 12:40:22;;;;;;;1.93;0.50;;;17.60;99.90;;;;;;4968570;28;20765;-89
2021/10/04 12:42:49;;;;;;;1.40;0.50;;;17.60;99.90;;;;;;4951430;28;20733;-89
2021/10/04 12:45:15;;;;;;;4.97;0.80;;;17.40;99.90;;;;;;4968159;28;20242;-89
2021/10/04 12:47:56;;;;;;;3.07;0.50;;;17.30;99.90;;;;;;4983966;28;20300;-87
2021/10/04 12:50:28;;;;;;;3.20;0.60;;;17.40;99.90;;;;;;4950972;28;20710;-90
2021/10/04 12:53:10;;;;;;;1.77;0.83;;;17.50;99.90;;;;;;4967481;28;20233;-89